sensor_id;sensor_type;location;lat;lon;timestamp;pressure;altitude;pressure_sealevel;temperature;humidity
41945;BME280;63122;52.424;13.458;2023-03-04T00:00:08;101210.56;;;1.50;100.00
41945;BME280;63122;52.424;13.458;2023-03-04T00:02:24;101216.94;;;1.44;100.00
41945;BME280;63122;52.424;13.458;2023-03-04T00:04:19;101211.97;;;1.39;100.00
41945;BME280;63122;52.424;13.458;2023-03-04T00:06:14;101214.56;;;1.39;100.00
41945;BME280;63122;52.424;13.458;2023-03-04T00:08:09;101218.78;;;1.42;100.00
41945;BME280;63122;52.424;13.458;2023-03-04T00:10:06;101211.81;;;1.42;100.00
41945;BME280;63122;52.424;13.458;2023-03-04T00:12:04;101209.03;;;1.46;100.00
41945;BME280;63122;52.424;13.458;2023-03-04T00:14:03;101210.34;;;1.37;100.00
41945;BME280;63122;52.424;13.458;2023-03-04T00:15:58;101218.84;;;1.40;100.00
41945;BME280;63122;52.424;13.458;2023-03-04T00:17:54;101206.06;;;1.36;100.00
41945;BME280;63122;52.424;13.458;2023-03-04T00:19:50;101215.88;;;1.31;100.00
41945;BME280;63122;52.424;13.458;2023-03-04T00:21:45;101197.84;;;1.27;100.00
41945;BME280;63122;52.424;13.458;2023-03-04T00:23:41;101182.41;;;1.24;100.00
41945;BME280;63122;52.424;13.458;2023-03-04T00:25:36;101188.13;;;1.31;100.00
41945;BME280;63122;52.424;13.458;2023-03-04T00:27:37;101198.28;;;1.36;100.00
41945;BME280;63122;52.424;13.458;2023-03-04T00:29:33;101187.81;;;1.37;100.00
41945;BME280;63122;52.424;13.458;2023-03-04T00:31:28;101184.13;;;1.41;100.00
41945;BME280;63122;52.424;13.458;2023-03-04T00:33:24;101182.59;;;1.37;100.00
41945;BME280;63122;52.424;13.458;2023-03-04T00:35:19;101184.34;;;1.37;100.00
41945;BME280;63122;52.424;13.458;2023-03-04T00:37:15;101187.06;;;1.35;100.00
41945;BME280;63122;52.424;13.458;2023-03-04T00:39:10;101176.66;;;1.35;100.00
41945;BME280;63122;52.424;13.458;2023-03-04T00:41:05;101180.16;;;1.34;100.00
41945;BME280;63122;52.424;13.458;2023-03-04T00:43:04;101186.13;;;1.36;100.00
41945;BME280;63122;52.424;13.458;2023-03-04T00:44:59;101183.69;;;1.33;100.00
41945;BME280;63122;52.424;13.458;2023-03-04T00:46:55;101185.44;;;1.33;100.00
41945;BME280;63122;52.424;13.458;2023-03-04T00:48:51;101184.44;;;1.35;100.00
41945;BME280;63122;52.424;13.458;2023-03-04T00:50:46;101181.00;;;1.35;100.00
41945;BME280;63122;52.424;13.458;2023-03-04T00:52:43;101177.41;;;1.37;100.00
41945;BME280;63122;52.424;13.458;2023-03-04T00:54:38;101177.19;;;1.42;100.00
41945;BME280;63122;52.424;13.458;2023-03-04T00:56:34;101167.72;;;1.41;100.00
41945;BME280;63122;52.424;13.458;2023-03-04T00:58:32;101165.94;;;1.41;100.00
41945;BME280;63122;52.424;13.458;2023-03-04T01:00:28;101158.97;;;1.42;100.00
41945;BME280;63122;52.424;13.458;2023-03-04T01:02:23;101166.03;;;1.40;100.00
41945;BME280;63122;52.424;13.458;2023-03-04T01:04:19;101158.72;;;1.47;100.00
41945;BME280;63122;52.424;13.458;2023-03-04T01:06:14;101162.25;;;1.46;100.00
41945;BME280;63122;52.424;13.458;2023-03-04T01:08:09;101168.19;;;1.48;100.00
41945;BME280;63122;52.424;13.458;2023-03-04T01:10:07;101153.34;;;1.50;100.00
41945;BME280;63122;52.424;13.458;2023-03-04T01:12:04;101148.31;;;1.47;100.00
41945;BME280;63122;52.424;13.458;2023-03-04T01:14:02;101144.91;;;1.46;100.00
41945;BME280;63122;52.424;13.458;2023-03-04T01:15:58;101161.00;;;1.53;100.00
41945;BME280;63122;52.424;13.458;2023-03-04T01:17:55;101161.00;;;1.53;100.00
41945;BME280;63122;52.424;13.458;2023-03-04T01:19:50;101148.91;;;1.52;100.00
41945;BME280;63122;52.424;13.458;2023-03-04T01:21:45;101152.38;;;1.52;100.00
41945;BME280;63122;52.424;13.458;2023-03-04T01:23:40;101144.41;;;1.55;100.00
41945;BME280;63122;52.424;13.458;2023-03-04T01:25:35;101140.88;;;1.56;100.00
41945;BME280;63122;52.424;13.458;2023-03-04T01:27:31;101136.59;;;1.55;100.00
41945;BME280;63122;52.424;13.458;2023-03-04T01:29:29;101128.91;;;1.54;100.00
41945;BME280;63122;52.424;13.458;2023-03-04T01:31:25;101133.94;;;1.57;100.00
41945;BME280;63122;52.424;13.458;2023-03-04T01:33:21;101127.06;;;1.56;100.00
41945;BME280;63122;52.424;13.458;2023-03-04T01:35:17;101128.22;;;1.50;100.00
41945;BME280;63122;52.424;13.458;2023-03-04T01:37:12;101116.94;;;1.50;100.00
41945;BME280;63122;52.424;13.458;2023-03-04T01:39:12;101116.28;;;1.46;100.00
41945;BME280;63122;52.424;13.458;2023-03-04T01:41:09;101120.41;;;1.50;100.00
41945;BME280;63122;52.424;13.458;2023-03-04T01:43:08;101119.16;;;1.57;100.00
41945;BME280;63122;52.424;13.458;2023-03-04T01:45:13;101106.66;;;1.64;100.00
41945;BME280;63122;52.424;13.458;2023-03-04T01:47:10;101116.16;;;1.65;100.00
41945;BME280;63122;52.424;13.458;2023-03-04T01:49:08;101115.28;;;1.65;100.00
41945;BME280;63122;52.424;13.458;2023-03-04T01:51:12;101123.03;;;1.66;100.00
41945;BME280;63122;52.424;13.458;2023-03-04T01:53:14;101126.31;;;1.70;100.00
41945;BME280;63122;52.424;13.458;2023-03-04T01:55:15;101122.03;;;1.69;100.00
41945;BME280;63122;52.424;13.458;2023-03-04T01:57:33;101115.06;;;1.69;100.00
41945;BME280;63122;52.424;13.458;2023-03-04T01:59:30;101110.19;;;1.79;100.00
41945;BME280;63122;52.424;13.458;2023-03-04T02:01:29;101106.44;;;1.85;100.00
41945;BME280;63122;52.424;13.458;2023-03-04T02:03:24;101094.06;;;1.89;100.00
41945;BME280;63122;52.424;13.458;2023-03-04T02:05:20;101106.66;;;1.80;100.00
41945;BME280;63122;52.424;13.458;2023-03-04T02:07:21;101098.78;;;1.82;100.00
41945;BME280;63122;52.424;13.458;2023-03-04T02:09:17;101105.81;;;1.80;100.00
41945;BME280;63122;52.424;13.458;2023-03-04T02:11:16;101096.03;;;1.85;100.00
41945;BME280;63122;52.424;13.458;2023-03-04T02:13:13;101097.94;;;1.81;100.00
41945;BME280;63122;52.424;13.458;2023-03-04T02:15:15;101097.09;;;1.81;100.00
41945;BME280;63122;52.424;13.458;2023-03-04T02:17:23;101101.22;;;1.85;100.00
41945;BME280;63122;52.424;13.458;2023-03-04T02:19:30;101091.47;;;1.89;100.00
41945;BME280;63122;52.424;13.458;2023-03-04T02:21:31;101087.78;;;1.93;100.00
41945;BME280;63122;52.424;13.458;2023-03-04T02:23:31;101089.53;;;1.92;100.00
41945;BME280;63122;52.424;13.458;2023-03-04T02:25:32;101081.56;;;1.95;100.00
41945;BME280;63122;52.424;13.458;2023-03-04T02:27:32;101078.28;;;1.92;100.00
41945;BME280;63122;52.424;13.458;2023-03-04T02:29:27;101084.09;;;1.97;100.00
41945;BME280;63122;52.424;13.458;2023-03-04T02:31:25;101078.91;;;1.97;100.00
41945;BME280;63122;52.424;13.458;2023-03-04T02:33:21;101073.34;;;2.03;100.00
41945;BME280;63122;52.424;13.458;2023-03-04T02:35:18;101072.59;;;2.01;100.00
41945;BME280;63122;52.424;13.458;2023-03-04T02:37:15;101071.66;;;2.02;100.00
41945;BME280;63122;52.424;13.458;2023-03-04T02:39:12;101063.50;;;2.08;100.00
41945;BME280;63122;52.424;13.458;2023-03-04T02:41:11;101068.34;;;2.14;100.00
41945;BME280;63122;52.424;13.458;2023-03-04T02:43:11;101054.69;;;2.11;100.00
41945;BME280;63122;52.424;13.458;2023-03-04T02:47:37;101049.63;;;2.08;100.00
41945;BME280;63122;52.424;13.458;2023-03-04T02:49:33;101041.69;;;2.11;100.00
41945;BME280;63122;52.424;13.458;2023-03-04T02:51:29;101051.31;;;2.09;100.00
41945;BME280;63122;52.424;13.458;2023-03-04T02:53:24;101043.59;;;2.07;100.00
41945;BME280;63122;52.424;13.458;2023-03-04T02:55:20;101048.88;;;2.06;100.00
41945;BME280;63122;52.424;13.458;2023-03-04T02:57:15;101041.06;;;2.06;100.00
41945;BME280;63122;52.424;13.458;2023-03-04T02:59:13;101036.63;;;2.08;100.00
41945;BME280;63122;52.424;13.458;2023-03-04T03:01:09;101037.66;;;2.05;100.00
41945;BME280;63122;52.424;13.458;2023-03-04T03:03:05;101049.06;;;2.03;100.00
41945;BME280;63122;52.424;13.458;2023-03-04T03:05:00;101047.31;;;2.03;100.00
41945;BME280;63122;52.424;13.458;2023-03-04T03:06:56;101044.72;;;2.03;100.00
41945;BME280;63122;52.424;13.458;2023-03-04T03:08:51;101041.19;;;2.04;100.00
41945;BME280;63122;52.424;13.458;2023-03-04T03:10:46;101034.78;;;2.10;100.00
41945;BME280;63122;52.424;13.458;2023-03-04T03:12:43;101034.63;;;2.13;100.00
41945;BME280;63122;52.424;13.458;2023-03-04T03:14:41;101030.81;;;2.19;100.00
41945;BME280;63122;52.424;13.458;2023-03-04T03:16:37;101043.94;;;2.17;100.00
41945;BME280;63122;52.424;13.458;2023-03-04T03:18:32;101035.09;;;2.20;100.00
41945;BME280;63122;52.424;13.458;2023-03-04T03:20:27;101033.41;;;2.19;100.00
41945;BME280;63122;52.424;13.458;2023-03-04T03:22:22;101041.72;;;2.25;100.00
41945;BME280;63122;52.424;13.458;2023-03-04T03:24:17;101041.03;;;2.22;100.00
41945;BME280;63122;52.424;13.458;2023-03-04T03:26:13;101042.91;;;2.20;100.00
41945;BME280;63122;52.424;13.458;2023-03-04T03:28:08;101035.09;;;2.20;100.00
41945;BME280;63122;52.424;13.458;2023-03-04T03:30:08;101035.00;;;2.21;100.00
41945;BME280;63122;52.424;13.458;2023-03-04T03:32:04;101039.97;;;2.26;100.00
41945;BME280;63122;52.424;13.458;2023-03-04T03:33:59;101034.25;;;2.19;100.00
41945;BME280;63122;52.424;13.458;2023-03-04T03:35:55;101034.25;;;2.19;100.00
41945;BME280;63122;52.424;13.458;2023-03-04T03:37:51;101031.66;;;2.19;100.00
41945;BME280;63122;52.424;13.458;2023-03-04T03:39:46;101033.34;;;2.20;100.00
41945;BME280;63122;52.424;13.458;2023-03-04T03:41:41;101029.63;;;2.24;100.00
41945;BME280;63122;52.424;13.458;2023-03-04T03:43:36;101026.09;;;2.25;100.00
41945;BME280;63122;52.424;13.458;2023-03-04T03:45:34;101020.31;;;2.20;100.00
41945;BME280;63122;52.424;13.458;2023-03-04T03:47:30;101016.69;;;2.23;100.00
41945;BME280;63122;52.424;13.458;2023-03-04T03:49:25;101020.31;;;2.20;100.00
41945;BME280;63122;52.424;13.458;2023-03-04T03:51:20;101015.19;;;2.19;100.00
41945;BME280;63122;52.424;13.458;2023-03-04T03:53:15;101005.69;;;2.18;100.00
41945;BME280;63122;52.424;13.458;2023-03-04T03:55:11;101004.03;;;2.16;100.00
41945;BME280;63122;52.424;13.458;2023-03-04T03:57:06;101003.09;;;2.18;100.00
41945;BME280;63122;52.424;13.458;2023-03-04T03:58:59;101005.69;;;2.18;100.00
41945;BME280;63122;52.424;13.458;2023-03-04T04:00:56;101019.75;;;2.15;100.00
41945;BME280;63122;52.424;13.458;2023-03-04T04:02:53;101001.53;;;2.15;100.00
41945;BME280;63122;52.424;13.458;2023-03-04T04:04:49;100999.00;;;2.13;100.00
41945;BME280;63122;52.424;13.458;2023-03-04T04:06:45;100998.94;;;2.15;100.00
41945;BME280;63122;52.424;13.458;2023-03-04T04:08:40;100994.53;;;2.15;100.00
41945;BME280;63122;52.424;13.458;2023-03-04T04:10:36;100996.16;;;2.18;100.00
41945;BME280;63122;52.424;13.458;2023-03-04T04:12:31;100997.72;;;2.21;100.00
41945;BME280;63122;52.424;13.458;2023-03-04T04:14:26;101000.41;;;2.19;100.00
41945;BME280;63122;52.424;13.458;2023-03-04T04:16:24;101002.91;;;2.21;100.00
41945;BME280;63122;52.424;13.458;2023-03-04T04:18:19;100989.81;;;2.22;100.00
41945;BME280;63122;52.424;13.458;2023-03-04T04:20:15;100989.81;;;2.22;100.00
41945;BME280;63122;52.424;13.458;2023-03-04T04:22:13;100995.69;;;2.26;100.00
41945;BME280;63122;52.424;13.458;2023-03-04T04:24:08;100992.25;;;2.25;100.00
41945;BME280;63122;52.424;13.458;2023-03-04T04:26:01;100986.84;;;2.28;100.00
41945;BME280;63122;52.424;13.458;2023-03-04T04:27:56;100993.91;;;2.26;100.00
41945;BME280;63122;52.424;13.458;2023-03-04T04:29:52;101000.16;;;2.24;100.00
41945;BME280;63122;52.424;13.458;2023-03-04T04:31:49;100987.97;;;2.24;100.00
41945;BME280;63122;52.424;13.458;2023-03-04T04:33:45;100994.78;;;2.27;100.00
41945;BME280;63122;52.424;13.458;2023-03-04T04:35:40;100993.91;;;2.26;100.00
41945;BME280;63122;52.424;13.458;2023-03-04T04:37:37;100988.63;;;2.28;100.00
41945;BME280;63122;52.424;13.458;2023-03-04T04:39:32;100994.59;;;2.30;100.00
41945;BME280;63122;52.424;13.458;2023-03-04T04:41:29;100987.59;;;2.30;100.00
41945;BME280;63122;52.424;13.458;2023-03-04T04:43:25;100987.59;;;2.30;100.00
41945;BME280;63122;52.424;13.458;2023-03-04T04:45:20;100990.22;;;2.30;100.00
41945;BME280;63122;52.424;13.458;2023-03-04T04:47:18;100981.38;;;2.33;100.00
41945;BME280;63122;52.424;13.458;2023-03-04T04:49:13;100987.41;;;2.34;100.00
41945;BME280;63122;52.424;13.458;2023-03-04T04:51:08;100976.66;;;2.40;100.00
41945;BME280;63122;52.424;13.458;2023-03-04T04:53:04;100978.53;;;2.38;100.00
41945;BME280;63122;52.424;13.458;2023-03-04T04:54:59;100965.78;;;2.48;100.00
41945;BME280;63122;52.424;13.458;2023-03-04T04:56:54;100965.88;;;2.46;100.00
41945;BME280;63122;52.424;13.458;2023-03-04T04:58:49;100977.31;;;2.43;100.00
41945;BME280;63122;52.424;13.458;2023-03-04T05:00:45;100971.91;;;2.47;100.00
41945;BME280;63122;52.424;13.458;2023-03-04T05:02:43;100975.38;;;2.47;100.00
41945;BME280;63122;52.424;13.458;2023-03-04T05:04:38;100971.72;;;2.50;100.00
41945;BME280;63122;52.424;13.458;2023-03-04T05:06:33;100977.59;;;2.53;100.00
41945;BME280;63122;52.424;13.458;2023-03-04T05:08:29;100970.63;;;2.54;100.00
41945;BME280;63122;52.424;13.458;2023-03-04T05:10:24;100970.63;;;2.54;100.00
41945;BME280;63122;52.424;13.458;2023-03-04T05:12:20;100965.31;;;2.55;100.00
41945;BME280;63122;52.424;13.458;2023-03-04T05:14:16;100966.91;;;2.58;100.00
41945;BME280;63122;52.424;13.458;2023-03-04T05:16:12;100971.28;;;2.57;100.00
41945;BME280;63122;52.424;13.458;2023-03-04T05:18:10;100965.25;;;2.57;100.00
41945;BME280;63122;52.424;13.458;2023-03-04T05:20:07;100968.41;;;2.62;100.00
41945;BME280;63122;52.424;13.458;2023-03-04T05:22:02;100964.88;;;2.63;100.00
41945;BME280;63122;52.424;13.458;2023-03-04T05:23:58;100973.34;;;2.67;100.00
41945;BME280;63122;52.424;13.458;2023-03-04T05:25:53;100977.63;;;2.68;100.00
41945;BME280;63122;52.424;13.458;2023-03-04T05:27:49;100973.25;;;2.68;100.00
41945;BME280;63122;52.424;13.458;2023-03-04T05:29:44;100973.16;;;2.70;100.00
41945;BME280;63122;52.424;13.458;2023-03-04T05:31:40;100971.56;;;2.67;100.00
41945;BME280;63122;52.424;13.458;2023-03-04T05:33:38;100968.13;;;2.67;100.00
41945;BME280;63122;52.424;13.458;2023-03-04T05:35:34;100971.47;;;2.69;100.00
41945;BME280;63122;52.424;13.458;2023-03-04T05:37:29;100976.59;;;2.70;100.00
41945;BME280;63122;52.424;13.458;2023-03-04T05:39:24;100969.69;;;2.69;100.00
41945;BME280;63122;52.424;13.458;2023-03-04T05:41:19;100968.50;;;2.75;100.00
41945;BME280;63122;52.424;13.458;2023-03-04T05:43:15;100968.22;;;2.80;100.00
41945;BME280;63122;52.424;13.458;2023-03-04T05:45:10;100968.38;;;2.77;100.00
41945;BME280;63122;52.424;13.458;2023-03-04T05:47:06;100969.97;;;2.79;100.00
41945;BME280;63122;52.424;13.458;2023-03-04T05:49:03;100969.78;;;2.82;100.00
41945;BME280;63122;52.424;13.458;2023-03-04T05:51:00;100971.84;;;2.77;100.00
41945;BME280;63122;52.424;13.458;2023-03-04T05:52:55;100971.66;;;2.80;100.00
41945;BME280;63122;52.424;13.458;2023-03-04T05:54:51;100961.03;;;2.83;100.00
41945;BME280;63122;52.424;13.458;2023-03-04T05:56:46;100965.25;;;2.86;100.00
41945;BME280;63122;52.424;13.458;2023-03-04T05:58:38;100968.03;;;2.83;100.00
41945;BME280;63122;52.424;13.458;2023-03-04T06:00:33;100967.28;;;2.81;100.00
41945;BME280;63122;52.424;13.458;2023-03-04T06:02:29;100967.66;;;2.89;100.00
41945;BME280;63122;52.424;13.458;2023-03-04T06:04:26;100972.88;;;2.89;100.00
41945;BME280;63122;52.424;13.458;2023-03-04T06:06:22;100965.88;;;2.90;100.00
41945;BME280;63122;52.424;13.458;2023-03-04T06:08:18;100969.22;;;2.92;100.00
41945;BME280;63122;52.424;13.458;2023-03-04T06:10:16;100965.69;;;2.93;100.00
41945;BME280;63122;52.424;13.458;2023-03-04T06:12:11;100964.13;;;2.90;100.00
41945;BME280;63122;52.424;13.458;2023-03-04T06:14:06;100964.78;;;2.94;100.00
41945;BME280;63122;52.424;13.458;2023-03-04T06:16:02;100973.41;;;2.94;100.00
41945;BME280;63122;52.424;13.458;2023-03-04T06:17:57;100964.84;;;2.92;100.00
41945;BME280;63122;52.424;13.458;2023-03-04T06:19:55;100960.13;;;2.99;100.00
41945;BME280;63122;52.424;13.458;2023-03-04T06:21:50;100970.44;;;3.00;100.00
41945;BME280;63122;52.424;13.458;2023-03-04T06:23:45;100973.22;;;2.97;100.00
41945;BME280;63122;52.424;13.458;2023-03-04T06:25:41;100973.97;;;2.99;100.00
41945;BME280;63122;52.424;13.458;2023-03-04T06:27:36;100976.38;;;3.02;100.00
41945;BME280;63122;52.424;13.458;2023-03-04T06:29:31;100973.22;;;2.97;100.00
41945;BME280;63122;52.424;13.458;2023-03-04T06:31:28;100975.75;;;2.99;100.00
41945;BME280;63122;52.424;13.458;2023-03-04T06:33:24;100972.22;;;3.00;100.00
41945;BME280;63122;52.424;13.458;2023-03-04T06:35:22;100972.94;;;3.02;100.00
41945;BME280;63122;52.424;13.458;2023-03-04T06:37:17;100971.09;;;3.04;100.00
41945;BME280;63122;52.424;13.458;2023-03-04T06:39:13;100969.03;;;3.09;100.00
41945;BME280;63122;52.424;13.458;2023-03-04T06:41:10;100978.97;;;3.02;100.00
41945;BME280;63122;52.424;13.458;2023-03-04T06:43:05;100972.47;;;2.95;100.00
41945;BME280;63122;52.424;13.458;2023-03-04T06:45:01;100984.78;;;2.93;100.00
41945;BME280;63122;52.424;13.458;2023-03-04T06:46:57;100981.22;;;2.94;100.00
41945;BME280;63122;52.424;13.458;2023-03-04T06:48:52;100994.34;;;2.93;100.00
41945;BME280;63122;52.424;13.458;2023-03-04T06:50:50;100981.44;;;2.91;100.00
41945;BME280;63122;52.424;13.458;2023-03-04T06:52:45;100974.16;;;2.96;100.00
41945;BME280;63122;52.424;13.458;2023-03-04T06:54:40;100982.25;;;2.92;100.00
41945;BME280;63122;52.424;13.458;2023-03-04T06:56:36;100986.63;;;2.91;100.00
41945;BME280;63122;52.424;13.458;2023-03-04T06:58:32;100982.44;;;2.88;100.00
41945;BME280;63122;52.424;13.458;2023-03-04T07:00:27;100987.56;;;2.90;100.00
41945;BME280;63122;52.424;13.458;2023-03-04T07:02:22;100978.06;;;2.89;100.00
41945;BME280;63122;52.424;13.458;2023-03-04T07:04:17;100981.31;;;2.93;100.00
41945;BME280;63122;52.424;13.458;2023-03-04T07:06:17;100983.19;;;2.91;100.00
41945;BME280;63122;52.424;13.458;2023-03-04T07:08:14;100985.78;;;2.91;100.00
41945;BME280;63122;52.424;13.458;2023-03-04T07:10:12;100992.66;;;2.92;100.00
41945;BME280;63122;52.424;13.458;2023-03-04T07:12:07;100984.84;;;2.92;100.00
41945;BME280;63122;52.424;13.458;2023-03-04T07:14:02;100988.13;;;2.95;100.00
41945;BME280;63122;52.424;13.458;2023-03-04T07:15:58;100991.47;;;2.97;100.00
41945;BME280;63122;52.424;13.458;2023-03-04T07:17:53;100988.97;;;2.96;100.00
41945;BME280;63122;52.424;13.458;2023-03-04T07:19:49;100983.56;;;2.99;100.00
41945;BME280;63122;52.424;13.458;2023-03-04T07:21:46;100982.34;;;3.05;100.00
41945;BME280;63122;52.424;13.458;2023-03-04T07:23:42;100984.19;;;3.02;100.00
41945;BME280;63122;52.424;13.458;2023-03-04T07:25:37;100991.81;;;3.06;100.00
41945;BME280;63122;52.424;13.458;2023-03-04T07:27:32;100989.22;;;3.06;100.00
41945;BME280;63122;52.424;13.458;2023-03-04T07:29:29;100985.59;;;3.08;100.00
41945;BME280;63122;52.424;13.458;2023-03-04T07:31:26;100984.31;;;3.01;100.00
41945;BME280;63122;52.424;13.458;2023-03-04T07:33:22;100986.53;;;3.07;100.00
41945;BME280;63122;52.424;13.458;2023-03-04T07:35:17;100988.41;;;3.05;100.00
41945;BME280;63122;52.424;13.458;2023-03-04T07:37:15;100997.16;;;3.04;100.00
41945;BME280;63122;52.424;13.458;2023-03-04T07:39:11;100999.19;;;3.13;100.00
41945;BME280;63122;52.424;13.458;2023-03-04T07:41:07;100999.38;;;3.10;100.00
41945;BME280;63122;52.424;13.458;2023-03-04T07:43:02;100989.13;;;3.07;100.00
41945;BME280;63122;52.424;13.458;2023-03-04T07:44:58;100998.91;;;3.03;100.00
41945;BME280;63122;52.424;13.458;2023-03-04T07:46:54;101005.72;;;3.06;100.00
41945;BME280;63122;52.424;13.458;2023-03-04T07:48:49;100997.16;;;3.04;100.00
41945;BME280;63122;52.424;13.458;2023-03-04T07:50:45;100990.25;;;3.03;100.00
41945;BME280;63122;52.424;13.458;2023-03-04T07:52:44;100998.56;;;3.10;100.00
41945;BME280;63122;52.424;13.458;2023-03-04T07:54:42;100992.50;;;3.09;100.00
41945;BME280;63122;52.424;13.458;2023-03-04T07:56:37;100992.69;;;3.06;100.00
41945;BME280;63122;52.424;13.458;2023-03-04T07:58:35;100992.22;;;3.14;100.00
41945;BME280;63122;52.424;13.458;2023-03-04T08:00:30;100986.69;;;3.19;100.00
41945;BME280;63122;52.424;13.458;2023-03-04T08:02:25;100995.38;;;3.19;100.00
41945;BME280;63122;52.424;13.458;2023-03-04T08:04:21;100994.25;;;3.23;100.00
41945;BME280;63122;52.424;13.458;2023-03-04T08:06:17;100997.38;;;3.28;100.00
41945;BME280;63122;52.424;13.458;2023-03-04T08:08:16;100993.03;;;3.29;100.00
41945;BME280;63122;52.424;13.458;2023-03-04T08:10:11;100998.13;;;3.30;100.00
41945;BME280;63122;52.424;13.458;2023-03-04T08:12:07;101003.66;;;3.26;100.00
41945;BME280;63122;52.424;13.458;2023-03-04T08:14:02;100999.56;;;3.22;100.00
41945;BME280;63122;52.424;13.458;2023-03-04T08:16:05;100997.59;;;3.25;100.00
41945;BME280;63122;52.424;13.458;2023-03-04T08:18:01;100998.13;;;3.30;100.00
41945;BME280;63122;52.424;13.458;2023-03-04T08:20:06;100991.75;;;3.22;100.00
41945;BME280;63122;52.424;13.458;2023-03-04T08:22:02;100985.00;;;3.17;100.00
41945;BME280;63122;52.424;13.458;2023-03-04T08:24:00;100996.31;;;3.18;100.00
41945;BME280;63122;52.424;13.458;2023-03-04T08:26:05;100998.44;;;3.26;100.00
41945;BME280;63122;52.424;13.458;2023-03-04T08:28:03;100995.72;;;3.27;100.00
41945;BME280;63122;52.424;13.458;2023-03-04T08:29:58;100991.53;;;3.25;100.00
41945;BME280;63122;52.424;13.458;2023-03-04T08:34:47;100990.97;;;3.34;100.00
41945;BME280;63122;52.424;13.458;2023-03-04T08:36:45;100990.31;;;3.30;100.00
41945;BME280;63122;52.424;13.458;2023-03-04T08:38:40;100988.34;;;3.34;100.00
41945;BME280;63122;52.424;13.458;2023-03-04T08:40:38;100982.84;;;3.39;100.00
41945;BME280;63122;52.424;13.458;2023-03-04T08:42:33;100982.47;;;3.45;100.00
41945;BME280;63122;52.424;13.458;2023-03-04T08:44:28;100984.69;;;3.51;100.00
41945;BME280;63122;52.424;13.458;2023-03-04T08:46:23;100985.53;;;3.52;100.00
41945;BME280;63122;52.424;13.458;2023-03-04T08:48:20;100982.47;;;3.45;100.00
41945;BME280;63122;52.424;13.458;2023-03-04T08:50:15;100973.03;;;3.42;100.00
41945;BME280;63122;52.424;13.458;2023-03-04T08:52:13;100967.63;;;3.45;100.00
41945;BME280;63122;52.424;13.458;2023-03-04T08:54:08;100969.66;;;3.55;100.00
41945;BME280;63122;52.424;13.458;2023-03-04T08:56:10;100957.84;;;3.49;100.00
41945;BME280;63122;52.424;13.458;2023-03-04T08:58:06;100959.31;;;3.53;100.00
41945;BME280;63122;52.424;13.458;2023-03-04T09:00:02;100966.13;;;3.56;100.00
41945;BME280;63122;52.424;13.458;2023-03-04T09:01:58;100955.78;;;3.54;100.00
41945;BME280;63122;52.424;13.458;2023-03-04T09:03:53;100957.81;;;3.64;100.00
41945;BME280;63122;52.424;13.458;2023-03-04T09:05:48;100953.88;;;3.71;100.00
41945;BME280;63122;52.424;13.458;2023-03-04T09:07:43;100954.69;;;3.71;100.00
41945;BME280;63122;52.424;13.458;2023-03-04T09:09:39;100947.22;;;3.80;100.00
41945;BME280;63122;52.424;13.458;2023-03-04T09:11:37;100945.88;;;3.87;100.00
41945;BME280;63122;52.424;13.458;2023-03-04T09:13:32;100948.19;;;3.92;100.00
41945;BME280;63122;52.424;13.458;2023-03-04T09:15:27;100950.03;;;3.89;100.00
41945;BME280;63122;52.424;13.458;2023-03-04T09:17:22;100957.03;;;3.89;100.00
41945;BME280;63122;52.424;13.458;2023-03-04T09:19:18;100954.22;;;3.92;100.00
41945;BME280;63122;52.424;13.458;2023-03-04T09:21:13;100953.19;;;3.95;100.00
41945;BME280;63122;52.424;13.458;2023-03-04T09:23:09;100963.53;;;3.96;100.00
41945;BME280;63122;52.424;13.458;2023-03-04T09:25:05;100958.22;;;3.98;100.00
41945;BME280;63122;52.424;13.458;2023-03-04T09:27:08;100959.97;;;3.97;100.00
41945;BME280;63122;52.424;13.458;2023-03-04T09:29:03;100963.53;;;3.96;100.00
41945;BME280;63122;52.424;13.458;2023-03-04T09:30:58;100969.69;;;3.95;100.00
41945;BME280;63122;52.424;13.458;2023-03-04T09:32:53;100959.97;;;3.97;100.00
41945;BME280;63122;52.424;13.458;2023-03-04T09:34:48;100969.59;;;3.97;100.00
41945;BME280;63122;52.424;13.458;2023-03-04T09:36:44;100961.88;;;4.08;100.00
41945;BME280;63122;52.424;13.458;2023-03-04T09:38:42;100964.81;;;4.16;100.00
41945;BME280;63122;52.424;13.458;2023-03-04T09:40:40;100959.94;;;4.25;100.00
41945;BME280;63122;52.424;13.458;2023-03-04T09:42:43;100968.34;;;4.15;100.00
41945;BME280;63122;52.424;13.458;2023-03-04T09:44:45;100962.94;;;4.18;100.00
41945;BME280;63122;52.424;13.458;2023-03-04T09:46:45;100966.19;;;4.22;100.00
41945;BME280;63122;52.424;13.458;2023-03-04T09:48:56;100967.56;;;4.28;100.00
41945;BME280;63122;52.424;13.458;2023-03-04T09:51:01;100962.84;;;4.33;100.00
41945;BME280;63122;52.424;13.458;2023-03-04T09:53:14;100958.66;;;4.30;100.00
41945;BME280;63122;52.424;13.458;2023-03-04T09:55:20;100952.50;;;4.31;100.00
41945;BME280;63122;52.424;13.458;2023-03-04T09:57:42;100960.97;;;4.35;100.00
41945;BME280;63122;52.424;13.458;2023-03-04T09:59:49;100954.28;;;4.31;100.00
41945;BME280;63122;52.424;13.458;2023-03-04T10:01:54;100960.34;;;4.44;100.00
41945;BME280;63122;52.424;13.458;2023-03-04T10:04:09;100954.81;;;4.36;100.00
41945;BME280;63122;52.424;13.458;2023-03-04T10:06:09;100951.38;;;4.49;100.00
41945;BME280;63122;52.424;13.458;2023-03-04T10:08:22;100951.25;;;4.50;100.00